createdAt,value
2019-05-07T00:02:15.465Z,62.08
2019-05-07T00:04:48.434Z,62.84
2019-05-07T00:07:22.400Z,63.15
2019-05-07T00:09:55.576Z,62.87
2019-05-07T00:12:28.533Z,63.43
2019-05-07T00:15:04.446Z,63.46
2019-05-07T00:17:36.263Z,63.55
2019-05-07T00:20:10.167Z,63.71
2019-05-07T00:22:43.161Z,63.91
2019-05-07T00:25:17.184Z,64.18
2019-05-07T00:27:52.303Z,64.31
2019-05-07T00:30:25.037Z,64.60
2019-05-07T00:32:57.971Z,63.90
2019-05-07T00:35:34.977Z,64.72
2019-05-07T00:38:12.800Z,64.70
2019-05-07T00:40:56.594Z,64.79
2019-05-07T00:43:32.751Z,64.87
2019-05-07T00:46:08.995Z,65.28
2019-05-07T00:48:42.378Z,65.32
2019-05-07T00:51:34.534Z,65.43
2019-05-07T00:54:08.483Z,65.73
2019-05-07T00:56:42.940Z,65.72
2019-05-07T00:59:15.952Z,65.85
2019-05-07T01:01:48.746Z,65.95
2019-05-07T01:04:22.924Z,66.13
2019-05-07T01:06:57.049Z,65.85
2019-05-07T01:09:32.243Z,65.93
2019-05-07T01:12:04.559Z,66.13
2019-05-07T01:14:37.451Z,66.35
2019-05-07T01:17:10.285Z,66.32
2019-05-07T01:19:43.074Z,66.38
2019-05-07T01:22:16.138Z,66.60
2019-05-07T01:24:52.450Z,66.60
2019-05-07T01:27:25.252Z,67.18
2019-05-07T01:29:58.104Z,67.11
2019-05-07T01:32:37.227Z,66.72
2019-05-07T01:35:22.425Z,67.01
2019-05-07T01:37:56.737Z,67.21
2019-05-07T01:40:32.371Z,67.63
2019-05-07T01:43:05.317Z,67.45
2019-05-07T01:45:49.112Z,67.60
2019-05-07T01:48:19.249Z,67.64
2019-05-07T01:50:53.160Z,67.96
2019-05-07T01:53:25.919Z,68.06
2019-05-07T01:55:59.012Z,67.98
2019-05-07T01:58:33.133Z,68.15
2019-05-07T02:01:06.529Z,68.41
2019-05-07T02:04:02.337Z,68.50
2019-05-07T02:06:43.520Z,68.58
2019-05-07T02:09:42.468Z,68.60
2019-05-07T02:12:22.194Z,68.55
2019-05-07T02:14:55.276Z,68.76
2019-05-07T02:17:28.231Z,68.64
2019-05-07T02:20:02.666Z,68.95
2019-05-07T02:22:35.758Z,69.46
2019-05-07T02:25:09.460Z,69.50
2019-05-07T02:27:42.450Z,69.45
2019-05-07T02:30:15.515Z,69.23
2019-05-07T02:32:48.328Z,69.38
2019-05-07T02:35:23.477Z,69.32
2019-05-07T02:38:05.383Z,69.77
2019-05-07T02:40:57.081Z,69.79
2019-05-07T02:43:29.948Z,69.64
2019-05-07T02:46:29.483Z,70.10
2019-05-07T02:49:16.463Z,70.41
2019-05-07T02:51:56.038Z,70.49
2019-05-07T02:54:46.299Z,70.49
2019-05-07T02:57:19.098Z,70.45
2019-05-07T02:59:54.483Z,70.95
2019-05-07T03:02:26.468Z,71.19
2019-05-07T03:04:59.775Z,71.19
2019-05-07T03:07:34.063Z,71.27
2019-05-07T03:10:07.147Z,70.96
2019-05-07T03:12:42.926Z,70.72
2019-05-07T03:15:14.934Z,71.18
2019-05-07T03:17:47.839Z,71.20
2019-05-07T03:20:25.051Z,71.54
2019-05-07T03:22:59.104Z,71.64
2019-05-07T03:25:53.791Z,71.54
2019-05-07T03:28:26.120Z,71.81
2019-05-07T03:31:09.084Z,71.91
2019-05-07T03:33:55.406Z,71.53
2019-05-07T03:36:46.595Z,71.59
2019-05-07T03:39:14.963Z,71.66
2019-05-07T03:41:47.871Z,71.67
2019-05-07T03:44:57.971Z,72.00
2019-05-07T03:47:36.113Z,72.01
2019-05-07T03:50:14.165Z,72.09
2019-05-07T03:52:45.868Z,72.41
2019-05-07T03:55:19.502Z,72.29
2019-05-07T03:57:52.836Z,72.18
2019-05-07T04:00:25.783Z,72.12
2019-05-07T04:02:58.810Z,71.86
2019-05-07T04:05:34.117Z,71.60
2019-05-07T04:08:06.162Z,71.33
2019-05-07T04:10:38.959Z,70.85
2019-05-07T04:13:13.372Z,70.63
2019-05-07T04:15:46.378Z,70.16
2019-05-07T04:18:19.160Z,69.78
2019-05-07T04:20:54.073Z,69.40
2019-05-07T04:23:26.546Z,69.28
2019-05-07T04:26:19.543Z,68.82
2019-05-07T04:29:06.203Z,68.30
2019-05-07T04:31:43.604Z,67.89
2019-05-07T04:34:24.705Z,68.20
2019-05-07T04:36:57.547Z,68.36
2019-05-07T04:39:33.305Z,69.15
2019-05-07T04:42:05.315Z,69.32
2019-05-07T04:44:38.145Z,69.68
2019-05-07T04:47:13.282Z,70.04
2019-05-07T04:49:45.669Z,70.15
2019-05-07T04:52:33.608Z,70.08
2019-05-07T04:55:09.186Z,69.83
2019-05-07T04:57:43.744Z,69.26
2019-05-07T05:00:17.413Z,69.38
2019-05-07T05:03:07.601Z,69.45
2019-05-07T05:05:43.269Z,68.94
2019-05-07T05:08:15.251Z,68.85
2019-05-07T05:10:48.197Z,68.21
2019-05-07T05:13:23.538Z,67.81
2019-05-07T05:15:55.716Z,67.59
2019-05-07T05:18:28.885Z,67.13
2019-05-07T05:21:28.071Z,66.41
2019-05-07T05:24:06.461Z,66.30
2019-05-07T05:26:41.785Z,65.93
2019-05-07T05:29:14.695Z,65.02
2019-05-07T05:31:47.534Z,65.27
2019-05-07T05:34:22.256Z,64.58
2019-05-07T05:36:55.003Z,64.18
2019-05-07T05:39:27.839Z,64.15
2019-05-07T05:42:08.271Z,63.99
2019-05-07T05:44:41.761Z,64.38
2019-05-07T05:47:14.753Z,64.67
2019-05-07T05:49:47.587Z,64.47
2019-05-07T05:52:32.897Z,64.28
2019-05-07T05:55:13.413Z,64.67
2019-05-07T05:58:12.211Z,65.25
2019-05-07T06:01:05.132Z,65.17
2019-05-07T06:04:12.441Z,65.41
2019-05-07T06:07:10.535Z,65.31
2019-05-07T06:09:55.762Z,64.84
2019-05-07T06:12:40.068Z,64.98
2019-05-07T06:15:22.978Z,64.23
2019-05-07T06:18:20.916Z,63.58
2019-05-07T06:21:04.303Z,63.42
2019-05-07T06:23:45.429Z,63.21
2019-05-07T06:26:18.270Z,62.43
2019-05-07T06:28:51.884Z,61.64
2019-05-07T06:31:24.807Z,61.38
2019-05-07T06:33:57.598Z,61.32
2019-05-07T06:36:32.826Z,61.05
2019-05-07T06:39:16.288Z,61.65
2019-05-07T06:42:06.869Z,61.77
2019-05-07T06:44:39.701Z,61.43
2019-05-07T06:47:13.152Z,61.35
2019-05-07T06:49:46.096Z,60.58
2019-05-07T06:52:18.933Z,60.15
2019-05-07T06:54:52.330Z,59.82
2019-05-07T06:57:27.001Z,60.12
2019-05-07T07:00:03.330Z,60.16
2019-05-07T07:02:58.433Z,59.60
2019-05-07T07:05:48.807Z,59.48
2019-05-07T07:08:27.288Z,59.12
2019-05-07T07:11:13.477Z,58.74
2019-05-07T07:13:46.364Z,57.44
2019-05-07T07:16:19.478Z,56.11
2019-05-07T07:18:55.488Z,53.99
2019-05-07T07:21:26.848Z,51.98
2019-05-07T07:23:59.704Z,50.34
2019-05-07T07:26:35.328Z,48.21
2019-05-07T07:29:12.577Z,49.01
2019-05-07T07:31:57.276Z,48.49
2019-05-07T07:34:33.288Z,47.32
2019-05-07T07:37:15.669Z,46.39
2019-05-07T07:39:48.599Z,45.57
2019-05-07T07:42:22.903Z,44.82
2019-05-07T07:45:15.295Z,44.36
2019-05-07T07:47:48.874Z,43.36
2019-05-07T07:50:22.399Z,42.22
2019-05-07T07:52:55.451Z,42.38
2019-05-07T07:55:37.173Z,41.60
2019-05-07T07:58:37.756Z,41.13
2019-05-07T08:01:18.613Z,40.50
2019-05-07T08:03:52.265Z,41.16
2019-05-07T08:06:27.290Z,40.06
2019-05-07T08:09:02.091Z,39.81
2019-05-07T08:11:36.462Z,39.22
2019-05-07T08:14:09.708Z,38.86
2019-05-07T08:16:43.175Z,39.33
2019-05-07T08:19:21.510Z,38.10
2019-05-07T08:21:52.157Z,37.59
2019-05-07T08:24:25.294Z,37.48
2019-05-07T08:26:59.226Z,38.43
2019-05-07T08:29:32.730Z,38.38
2019-05-07T08:32:24.429Z,38.91
2019-05-07T08:35:02.955Z,38.67
2019-05-07T08:37:35.940Z,39.97
2019-05-07T08:40:09.288Z,40.06
2019-05-07T08:42:42.447Z,42.28
2019-05-07T08:45:33.256Z,41.05
2019-05-07T08:48:12.489Z,41.50
2019-05-07T08:50:46.304Z,40.39
2019-05-07T08:53:19.252Z,40.65
2019-05-07T08:55:52.619Z,39.48
2019-05-07T08:58:25.904Z,41.39
2019-05-07T09:00:59.162Z,42.47
2019-05-07T09:03:45.021Z,42.94
2019-05-07T09:06:32.327Z,43.76
2019-05-07T09:09:13.050Z,44.69
2019-05-07T09:11:46.051Z,44.82
2019-05-07T09:14:19.099Z,44.23
2019-05-07T09:16:52.727Z,45.19
2019-05-07T09:19:25.722Z,45.08
2019-05-07T09:22:02.288Z,45.16
2019-05-07T09:24:35.596Z,45.24
2019-05-07T09:27:42.167Z,44.41
2019-05-07T09:30:32.674Z,43.63
2019-05-07T09:33:32.087Z,43.04
2019-05-07T09:36:07.143Z,43.50
2019-05-07T09:38:41.848Z,43.30
2019-05-07T09:41:27.285Z,43.09
2019-05-07T09:44:02.985Z,41.99
2019-05-07T09:46:35.064Z,43.47
2019-05-07T09:49:08.018Z,43.57
2019-05-07T09:51:42.674Z,41.82
2019-05-07T09:54:15.689Z,42.14
2019-05-07T09:56:48.581Z,42.05
2019-05-07T09:59:21.869Z,39.91
2019-05-07T10:01:54.985Z,39.66
2019-05-07T10:04:28.210Z,40.31
2019-05-07T10:07:02.714Z,40.50
2019-05-07T10:09:35.672Z,40.99
2019-05-07T10:12:28.976Z,41.51
2019-05-07T10:15:03.043Z,41.76
2019-05-07T10:17:55.361Z,42.44
2019-05-07T10:20:28.453Z,42.27
2019-05-07T10:23:02.405Z,42.57
2019-05-07T10:25:41.394Z,42.15
2019-05-07T10:28:14.372Z,40.81
2019-05-07T10:30:47.375Z,40.82
2019-05-07T10:33:20.366Z,40.32
2019-05-07T10:35:53.375Z,39.49
2019-05-07T10:38:26.328Z,38.85
2019-05-07T10:40:59.447Z,38.65
2019-05-07T10:43:32.962Z,38.75
2019-05-07T10:46:38.443Z,37.22
2019-05-07T10:49:17.902Z,36.35
2019-05-07T10:51:51.770Z,35.70
2019-05-07T10:54:24.964Z,34.12
2019-05-07T10:56:58.079Z,34.32
2019-05-07T10:59:30.960Z,33.52
2019-05-07T11:02:09.875Z,32.28
2019-05-07T11:04:45.746Z,32.77
2019-05-07T11:07:17.920Z,31.57
2019-05-07T11:09:52.496Z,32.51
2019-05-07T11:12:25.554Z,34.04
2019-05-07T11:14:58.386Z,33.78
2019-05-07T11:17:43.406Z,32.84
2019-05-07T11:20:17.699Z,32.74
2019-05-07T11:22:52.201Z,33.22
2019-05-07T11:25:25.278Z,33.12
2019-05-07T11:27:58.486Z,33.11
2019-05-07T11:30:32.143Z,34.77
2019-05-07T11:33:05.230Z,35.78
2019-05-07T11:35:38.129Z,35.76
2019-05-07T11:38:18.698Z,34.28
2019-05-07T11:40:45.823Z,34.58
2019-05-07T11:43:34.412Z,35.15
2019-05-07T11:46:17.484Z,35.09
2019-05-07T11:48:59.077Z,34.08
2019-05-07T11:51:46.172Z,34.42
2019-05-07T11:54:19.046Z,32.66
2019-05-07T11:56:53.776Z,32.67
2019-05-07T11:59:26.494Z,33.03
2019-05-07T12:02:03.537Z,34.58
2019-05-07T12:04:38.345Z,33.66
2019-05-07T12:07:11.899Z,32.75
2019-05-07T12:09:45.143Z,32.74
2019-05-07T12:12:17.962Z,32.36
2019-05-07T12:14:51.845Z,32.77
2019-05-07T12:17:24.873Z,32.32
2019-05-07T12:19:57.704Z,31.90
2019-05-07T12:22:47.392Z,32.41
2019-05-07T12:25:21.980Z,30.37
2019-05-07T12:27:55.440Z,30.89
2019-05-07T12:30:42.816Z,28.33
2019-05-07T12:33:42.633Z,28.68
2019-05-07T12:36:15.945Z,29.05
2019-05-07T12:38:48.747Z,29.26
2019-05-07T12:41:33.237Z,29.61
2019-05-07T12:44:07.785Z,29.88
2019-05-07T12:46:42.278Z,29.72
2019-05-07T12:49:15.333Z,30.34
2019-05-07T12:52:13.065Z,29.01
2019-05-07T12:54:53.193Z,30.55
2019-05-07T12:57:26.024Z,27.47
2019-05-07T13:00:17.891Z,27.89
2019-05-07T13:03:24.566Z,27.67
2019-05-07T13:05:57.490Z,28.44
2019-05-07T13:08:32.919Z,29.18
2019-05-07T13:11:06.518Z,29.36
2019-05-07T13:13:39.491Z,30.20
2019-05-07T13:16:12.909Z,29.82
2019-05-07T13:18:45.794Z,29.97
2019-05-07T13:21:18.633Z,30.24
2019-05-07T13:23:52.081Z,30.61
2019-05-07T13:26:25.163Z,29.94
2019-05-07T13:28:58.209Z,31.94
2019-05-07T13:31:34.010Z,31.70
2019-05-07T13:34:06.884Z,31.27
2019-05-07T13:36:43.080Z,31.11
2019-05-07T13:39:24.855Z,30.79
2019-05-07T13:42:03.781Z,30.85
2019-05-07T13:44:44.869Z,31.04
2019-05-07T13:47:42.659Z,32.54
2019-05-07T13:50:15.672Z,33.20
2019-05-07T13:52:48.565Z,32.70
2019-05-07T13:55:21.936Z,32.89
2019-05-07T13:57:54.929Z,30.17
2019-05-07T14:00:32.962Z,30.51
2019-05-07T14:03:06.048Z,30.80
2019-05-07T14:05:39.254Z,29.63
2019-05-07T14:08:14.132Z,29.12
2019-05-07T14:10:46.821Z,28.23
2019-05-07T14:13:21.868Z,28.21
2019-05-07T14:16:07.338Z,27.82
2019-05-07T14:18:41.603Z,28.44
2019-05-07T14:21:14.389Z,29.60
2019-05-07T14:23:47.405Z,29.72
2019-05-07T14:26:23.679Z,29.11
2019-05-07T14:28:54.880Z,28.93
2019-05-07T14:31:27.759Z,29.98
2019-05-07T14:34:09.442Z,29.92
2019-05-07T14:36:51.093Z,29.62
2019-05-07T14:39:24.694Z,29.55
2019-05-07T14:41:59.932Z,28.67
2019-05-07T14:44:48.989Z,29.93
2019-05-07T14:47:22.568Z,29.55
2019-05-07T14:49:55.439Z,30.25
2019-05-07T14:52:33.069Z,30.09
2019-05-07T14:55:05.330Z,29.98
2019-05-07T14:57:38.683Z,30.46
2019-05-07T15:00:12.455Z,29.82
2019-05-07T15:02:45.472Z,30.44
2019-05-07T15:05:22.211Z,31.27
2019-05-07T15:08:07.492Z,31.38
2019-05-07T15:10:29.316Z,32.62
2019-05-07T15:13:02.383Z,32.52
2019-05-07T15:15:35.444Z,32.20
2019-05-07T15:18:27.288Z,32.47
2019-05-07T15:21:01.864Z,32.75
2019-05-07T15:23:36.755Z,32.50
2019-05-07T15:26:10.282Z,32.64
2019-05-07T15:28:45.500Z,31.93
2019-05-07T15:31:21.759Z,31.11
2019-05-07T15:33:54.621Z,31.51
2019-05-07T15:36:27.575Z,31.37
2019-05-07T15:39:02.775Z,31.20
2019-05-07T15:41:36.739Z,30.92
2019-05-07T15:44:11.988Z,30.00
2019-05-07T15:46:45.095Z,31.22
2019-05-07T15:49:17.977Z,29.53
2019-05-07T15:51:54.335Z,30.11
2019-05-07T15:54:27.204Z,29.46
2019-05-07T15:57:03.060Z,30.15
2019-05-07T15:59:35.955Z,30.13
2019-05-07T16:02:17.975Z,31.08
2019-05-07T16:04:50.953Z,30.54
2019-05-07T16:07:23.837Z,31.25
2019-05-07T16:09:56.988Z,30.73
2019-05-07T16:12:31.975Z,30.91
2019-05-07T16:15:06.432Z,31.34
2019-05-07T16:17:43.088Z,32.49
2019-05-07T16:20:16.364Z,31.79
2019-05-07T16:22:55.030Z,31.18
2019-05-07T16:25:26.919Z,31.51
2019-05-07T16:28:02.078Z,34.39
2019-05-07T16:30:34.370Z,35.40
2019-05-07T16:33:07.253Z,35.08
2019-05-07T16:35:42.333Z,35.62
2019-05-07T16:38:18.070Z,36.24
2019-05-07T16:40:52.218Z,36.92
2019-05-07T16:43:25.307Z,37.16
2019-05-07T16:45:58.441Z,37.48
2019-05-07T16:48:32.689Z,36.65
2019-05-07T16:51:05.872Z,37.52
2019-05-07T16:53:38.835Z,37.78
2019-05-07T16:56:12.419Z,37.54
2019-05-07T16:58:52.210Z,38.33
2019-05-07T17:01:24.824Z,38.03
2019-05-07T17:03:59.198Z,38.23
2019-05-07T17:06:33.441Z,38.30
2019-05-07T17:09:16.414Z,38.35
2019-05-07T17:11:49.447Z,37.55
2019-05-07T17:14:22.424Z,37.90
2019-05-07T17:16:55.291Z,38.85
2019-05-07T17:19:28.282Z,39.55
2019-05-07T17:22:02.863Z,39.73
2019-05-07T17:24:35.986Z,40.93
2019-05-07T17:27:08.925Z,41.27
2019-05-07T17:29:42.954Z,41.03
2019-05-07T17:32:16.220Z,41.28
2019-05-07T17:34:49.172Z,41.75
2019-05-07T17:37:22.560Z,42.27
2019-05-07T17:39:55.645Z,42.47
2019-05-07T17:42:28.577Z,42.38
2019-05-07T17:45:02.955Z,42.65
2019-05-07T17:47:37.758Z,43.01
2019-05-07T17:50:13.020Z,43.18
2019-05-07T17:52:45.997Z,43.08
2019-05-07T17:55:18.957Z,43.20
2019-05-07T17:57:52.372Z,43.48
2019-05-07T18:00:25.684Z,43.67
2019-05-07T18:03:16.153Z,43.89
2019-05-07T18:05:49.423Z,44.07
2019-05-07T18:08:22.335Z,44.61
2019-05-07T18:10:55.344Z,44.97
2019-05-07T18:13:29.283Z,44.79
2019-05-07T18:16:19.127Z,44.87
2019-05-07T18:18:52.363Z,45.35
2019-05-07T18:21:25.220Z,45.68
2019-05-07T18:24:12.690Z,46.19
2019-05-07T18:26:33.705Z,46.47
2019-05-07T18:29:06.890Z,46.75
2019-05-07T18:31:52.507Z,46.88
2019-05-07T18:34:25.342Z,46.90
2019-05-07T18:36:58.186Z,47.03
2019-05-07T18:39:32.429Z,46.92
2019-05-07T18:42:05.585Z,47.08
2019-05-07T18:44:38.493Z,47.43
2019-05-07T18:47:12.930Z,47.51
2019-05-07T18:49:46.013Z,47.70
2019-05-07T18:52:18.970Z,47.42
2019-05-07T18:54:52.151Z,47.47
2019-05-07T18:57:25.278Z,47.90
2019-05-07T18:59:58.373Z,48.43
2019-05-07T19:02:31.930Z,49.03
2019-05-07T19:05:05.332Z,49.16
2019-05-07T19:07:38.332Z,49.71
2019-05-07T19:10:12.761Z,49.67
2019-05-07T19:12:45.849Z,49.70
2019-05-07T19:15:19.168Z,50.31
2019-05-07T19:17:52.436Z,50.82
2019-05-07T19:20:25.663Z,51.24
2019-05-07T19:22:58.605Z,51.14
2019-05-07T19:25:32.647Z,51.37
2019-05-07T19:28:07.203Z,51.10
2019-05-07T19:30:42.011Z,51.32
2019-05-07T19:33:15.199Z,51.01
2019-05-07T19:35:48.103Z,51.58
2019-05-07T19:38:21.100Z,52.33
2019-05-07T19:40:53.981Z,52.59
2019-05-07T19:43:27.165Z,52.71
2019-05-07T19:46:00.090Z,53.47
2019-05-07T19:48:33.019Z,53.50
2019-05-07T19:51:06.133Z,53.68
2019-05-07T19:53:41.968Z,53.41
2019-05-07T19:56:17.900Z,53.75
2019-05-07T19:58:52.608Z,53.65
2019-05-07T20:01:32.370Z,53.87
2019-05-07T20:04:05.675Z,54.26
2019-05-07T20:06:38.660Z,54.85
2019-05-07T20:09:15.546Z,55.10
2019-05-07T20:11:52.154Z,54.90
2019-05-07T20:14:24.157Z,55.23
2019-05-07T20:16:57.208Z,54.74
2019-05-07T20:19:32.140Z,55.74
2019-05-07T20:22:04.909Z,56.01
2019-05-07T20:24:37.811Z,56.48
2019-05-07T20:27:12.445Z,56.16
2019-05-07T20:29:45.783Z,57.28
2019-05-07T20:32:18.718Z,57.19
2019-05-07T20:34:52.091Z,56.87
2019-05-07T20:37:25.219Z,56.37
2019-05-07T20:39:58.343Z,57.00
2019-05-07T20:42:32.380Z,57.34
2019-05-07T20:45:06.539Z,57.15
2019-05-07T20:47:39.506Z,57.34
2019-05-07T20:50:12.925Z,57.93
2019-05-07T20:52:46.027Z,57.88
2019-05-07T20:55:43.111Z,58.69
2019-05-07T20:58:16.121Z,59.40
2019-05-07T21:00:49.148Z,59.98
2019-05-07T21:03:23.966Z,60.31
2019-05-07T21:05:56.954Z,60.55
2019-05-07T21:08:31.918Z,60.76
2019-05-07T21:11:04.654Z,60.89
2019-05-07T21:13:37.606Z,60.85
2019-05-07T21:16:12.627Z,60.96
2019-05-07T21:18:45.180Z,61.89
2019-05-07T21:21:18.072Z,62.06
2019-05-07T21:23:52.762Z,63.63
2019-05-07T21:26:25.870Z,64.01
2019-05-07T21:28:58.755Z,62.63
2019-05-07T21:31:32.167Z,62.03
2019-05-07T21:34:05.384Z,61.90
2019-05-07T21:36:38.238Z,61.86
2019-05-07T21:39:12.953Z,62.25
2019-05-07T21:41:45.527Z,62.10
2019-05-07T21:44:18.405Z,61.96
2019-05-07T21:46:51.833Z,62.70
2019-05-07T21:49:24.856Z,62.98
2019-05-07T21:51:57.679Z,63.36
2019-05-07T21:54:37.145Z,62.90
2019-05-07T21:57:28.942Z,62.92
2019-05-07T22:00:32.911Z,63.11
2019-05-07T22:03:12.543Z,62.91
2019-05-07T22:05:45.461Z,63.31
2019-05-07T22:08:18.331Z,63.57
2019-05-07T22:10:51.163Z,64.38
2019-05-07T22:13:24.109Z,64.37
2019-05-07T22:15:57.013Z,65.06
2019-05-07T22:18:31.946Z,65.33
2019-05-07T22:21:04.503Z,65.55
2019-05-07T22:23:37.657Z,66.12
2019-05-07T22:26:20.167Z,66.05
2019-05-07T22:28:45.153Z,65.50
2019-05-07T22:31:26.080Z,65.76
2019-05-07T22:34:08.333Z,66.00
2019-05-07T22:36:43.159Z,66.65
2019-05-07T22:39:17.401Z,66.41
2019-05-07T22:41:51.852Z,66.42
2019-05-07T22:44:26.492Z,67.08
2019-05-07T22:47:07.067Z,67.14
2019-05-07T22:49:41.994Z,67.20
2019-05-07T22:52:14.752Z,67.06
2019-05-07T22:54:47.615Z,66.99
2019-05-07T22:57:35.943Z,66.25
2019-05-07T23:00:12.587Z,66.29
2019-05-07T23:02:47.004Z,66.84
2019-05-07T23:05:19.827Z,67.03
2019-05-07T23:07:52.900Z,67.18
2019-05-07T23:10:25.687Z,67.57
2019-05-07T23:12:58.724Z,67.39
2019-05-07T23:15:32.255Z,67.71
2019-05-07T23:18:05.368Z,67.58
2019-05-07T23:20:38.317Z,67.54
2019-05-07T23:23:13.911Z,67.58
2019-05-07T23:25:45.938Z,68.85
2019-05-07T23:28:18.740Z,68.67
2019-05-07T23:30:51.943Z,68.64
2019-05-07T23:33:24.890Z,67.74
2019-05-07T23:35:57.783Z,67.69
2019-05-07T23:38:31.959Z,68.22
2019-05-07T23:41:33.084Z,67.64
2019-05-07T23:44:30.721Z,67.80
2019-05-07T23:47:03.592Z,67.74
2019-05-07T23:49:36.414Z,68.71
2019-05-07T23:52:09.250Z,68.45
2019-05-07T23:54:42.600Z,69.08
2019-05-07T23:57:15.660Z,69.03
2019-05-07T23:59:48.540Z,68.41
